Time;durP1;ratioP1;P1;durP2;ratioP2;P2;SDS_P1;SDS_P2;PMS_P1;PMS_P2;Temp;Humidity;BMP_temperature;BMP_pressure;BME280_temperature;BME280_humidity;BME280_pressure;Samples;Min_cycle;Max_cycle;Signal;HPM_P1;HPM_P2
2022/12/15 00:40:58;;;;;;;;;0.00;0.00;;;;;-2.94;89.92;97120.94;4960539;28;102429;-76
2022/12/15 00:43:30;;;;;;;;;0.00;0.00;;;;;-2.93;90.01;97128.72;4954250;28;103959;-76
2022/12/15 00:48:45;;;;;;;;;0.00;0.00;;;;;-2.88;90.07;97134.34;4946662;28;102699;-76
2022/12/15 00:51:13;;;;;;;;;0.67;0.00;;;;;-2.84;89.11;97137.53;4955000;28;105477;-76
2022/12/15 01:21:21;;;;;;;;;1.00;0.00;;;;;-2.75;89.86;97148.00;4954953;28;102317;-74
2022/12/15 01:23:51;;;;;;;;;0.00;0.00;;;;;-2.65;89.22;97162.94;4951292;28;102316;-76
2022/12/15 01:26:18;;;;;;;;;0.00;0.00;;;;;-2.63;89.60;97150.41;4950030;28;104089;-74
2022/12/15 01:28:45;;;;;;;;;0.33;0.00;;;;;-2.61;90.69;97161.69;4951821;28;102515;-74
2022/12/15 01:31:13;;;;;;;;;0.00;0.00;;;;;-2.59;89.78;97163.16;4958776;28;101973;-74
2022/12/15 01:33:42;;;;;;;;;2.00;0.00;;;;;-2.65;89.79;97157.66;4952839;28;102352;-74
2022/12/15 01:36:10;;;;;;;;;1.00;1.00;;;;;-2.57;89.62;97163.03;4957565;28;104004;-74
2022/12/15 01:38:37;;;;;;;;;0.67;0.67;;;;;-2.57;90.55;97166.50;4963798;28;102414;-75
2022/12/15 01:41:08;;;;;;;;;2.00;1.00;;;;;-2.58;90.75;97171.94;4955964;28;102295;-73
2022/12/15 01:43:37;;;;;;;;;2.00;2.00;;;;;-2.59;90.84;97167.63;4956074;28;105336;-76
2022/12/15 01:46:07;;;;;;;;;1.00;1.00;;;;;-2.55;91.94;97163.69;4958364;28;104191;-74
2022/12/15 01:48:41;;;;;;;;;1.00;0.00;;;;;-2.52;90.32;97171.34;4951825;28;102161;-73
2022/12/15 01:51:32;;;;;;;;;1.00;1.00;;;;;-2.53;90.83;97175.78;4969550;28;102273;-74
2022/12/15 01:54:07;;;;;;;;;0.67;0.00;;;;;-2.50;91.88;97177.28;4958284;28;102369;-74
2022/12/15 01:56:41;;;;;;;;;0.00;0.00;;;;;-2.47;90.52;97190.19;4953021;28;108852;-74
2022/12/15 01:59:14;;;;;;;;;1.33;1.00;;;;;-2.47;92.14;97192.84;4954334;28;102107;-73
2022/12/15 02:01:41;;;;;;;;;1.00;1.00;;;;;-2.47;90.24;97184.91;4956996;28;102325;-74
2022/12/15 02:04:08;;;;;;;;;0.67;0.00;;;;;-2.49;91.91;97185.09;4954993;28;102608;-73
2022/12/15 02:06:47;;;;;;;;;2.00;1.00;;;;;-2.47;91.44;97182.25;4955461;28;104209;-72
2022/12/15 02:09:33;;;;;;;;;1.67;1.00;;;;;-2.46;90.69;97190.06;4952005;28;102052;-74
2022/12/15 02:12:40;;;;;;;;;1.67;1.67;;;;;-2.46;91.81;97183.94;4949559;28;104015;-74
2022/12/15 02:15:49;;;;;;;;;0.67;0.67;;;;;-2.46;90.64;97191.88;4953427;28;102143;-74
2022/12/15 02:18:36;;;;;;;;;1.00;0.00;;;;;-2.48;91.29;97197.34;4943956;28;108158;-73
2022/12/15 02:21:42;;;;;;;;;3.33;1.00;;;;;-2.48;89.92;97197.34;4951299;28;103976;-74
2022/12/15 02:25:01;;;;;;;;;1.00;1.00;;;;;-2.50;89.97;97201.09;4955762;28;102319;-73
2022/12/15 02:28:03;;;;;;;;;2.00;1.33;;;;;-2.53;90.92;97207.53;4966823;28;102458;-73
2022/12/15 02:34:13;;;;;;;;;1.00;1.00;;;;;-2.53;90.44;97219.94;4951998;28;102465;-74
2022/12/15 02:36:46;;;;;;;;;1.33;0.67;;;;;-2.55;91.20;97219.25;4955889;28;103769;-74
2022/12/15 02:39:14;;;;;;;;;1.00;1.00;;;;;-2.56;90.09;97233.47;4954828;28;104240;-74
2022/12/15 02:41:43;;;;;;;;;1.00;1.00;;;;;-2.56;91.63;97229.00;4955664;28;103984;-73
2022/12/15 02:44:35;;;;;;;;;2.00;1.00;;;;;-2.56;90.52;97231.66;4937853;28;102268;-74
2022/12/15 02:47:30;;;;;;;;;1.00;0.33;;;;;-2.54;90.91;97240.28;4954613;28;102134;-73
2022/12/15 02:50:14;;;;;;;;;1.33;0.67;;;;;-2.54;90.28;97245.56;4954224;28;102566;-73
2022/12/15 02:52:51;;;;;;;;;1.00;0.00;;;;;-2.56;91.33;97236.94;4955529;28;108592;-73
2022/12/15 02:55:36;;;;;;;;;1.00;0.00;;;;;-2.54;90.33;97240.28;4956434;28;102679;-73
2022/12/15 02:58:24;;;;;;;;;1.33;1.00;;;;;-2.55;91.17;97243.91;4951044;28;101974;-74
2022/12/15 03:00:59;;;;;;;;;1.67;1.67;;;;;-2.57;90.79;97237.09;4957023;28;103906;-74
2022/12/15 03:03:29;;;;;;;;;1.00;1.00;;;;;-2.57;90.19;97245.03;4956694;28;104223;-74
2022/12/15 03:06:01;;;;;;;;;1.00;0.00;;;;;-2.55;89.84;97245.72;4958880;28;102493;-74
2022/12/15 03:08:28;;;;;;;;;1.00;1.00;;;;;-2.55;91.42;97248.34;4963410;28;105893;-74
2022/12/15 03:10:57;;;;;;;;;1.00;1.00;;;;;-2.61;90.23;97235.75;4957119;28;102460;-73
2022/12/15 03:13:24;;;;;;;;;0.00;0.00;;;;;-2.52;90.21;97248.06;4959297;28;104057;-74
2022/12/15 03:15:53;;;;;;;;;0.00;0.00;;;;;-2.52;90.89;97253.38;4962496;28;102780;-74
2022/12/15 03:18:20;;;;;;;;;0.00;0.00;;;;;-2.53;90.30;97243.75;4965946;28;102058;-74
2022/12/15 03:20:47;;;;;;;;;0.67;0.00;;;;;-2.52;89.63;97248.06;4957501;28;102633;-75
2022/12/15 03:23:14;;;;;;;;;1.00;0.00;;;;;-2.53;90.05;97251.69;4957586;28;104166;-74
2022/12/15 03:25:44;;;;;;;;;0.00;0.00;;;;;-2.54;90.81;97260.59;4954589;28;102297;-74
2022/12/15 03:28:11;;;;;;;;;2.00;1.00;;;;;-2.67;90.29;97244.28;4960383;28;102399;-74
2022/12/15 03:30:38;;;;;;;;;1.00;1.00;;;;;-2.67;90.49;97254.88;4953440;28;103974;-73
2022/12/15 03:33:05;;;;;;;;;1.67;1.33;;;;;-2.56;90.89;97270.50;4961158;28;103994;-73
2022/12/15 03:35:32;;;;;;;;;1.00;1.00;;;;;-2.57;91.44;97280.28;4957606;28;102462;-74
2022/12/15 03:37:59;;;;;;;;;1.00;0.67;;;;;-2.56;90.62;97279.28;4955555;28;104513;-74
2022/12/15 03:40:26;;;;;;;;;1.00;1.00;;;;;-2.58;90.16;97281.25;4960269;28;102312;-74
2022/12/15 03:42:53;;;;;;;;;1.00;1.00;;;;;-2.55;90.57;97282.75;4956855;28;103985;-74
2022/12/15 03:45:25;;;;;;;;;0.00;0.00;;;;;-2.57;90.68;97280.28;4956323;28;102226;-73
2022/12/15 03:47:53;;;;;;;;;1.33;1.00;;;;;-2.56;91.34;97289.00;4961624;28;102227;-74
2022/12/15 03:50:26;;;;;;;;;0.00;0.00;;;;;-2.63;90.05;97278.22;4956847;28;103571;-74
2022/12/15 03:52:56;;;;;;;;;0.00;0.00;;;;;-2.55;90.28;97296.81;4969291;28;104056;-74
2022/12/15 03:55:24;;;;;;;;;1.00;0.00;;;;;-2.60;89.84;97288.50;4941994;28;102072;-74
2022/12/15 03:57:51;;;;;;;;;0.33;0.33;;;;;-2.54;91.21;97297.66;4965602;28;102952;-74
2022/12/15 04:00:20;;;;;;;;;1.00;1.00;;;;;-2.54;89.74;97309.06;4953668;28;104012;-74
2022/12/15 04:02:47;;;;;;;;;0.00;0.00;;;;;-2.54;89.70;97306.41;4951605;28;106020;-74
2022/12/15 04:05:19;;;;;;;;;1.33;0.00;;;;;-2.54;90.13;97306.41;4955772;28;102564;-73
2022/12/15 04:07:46;;;;;;;;;0.00;0.00;;;;;-2.55;91.27;97301.28;4937250;28;102219;-73
2022/12/15 04:10:13;;;;;;;;;0.33;0.33;;;;;-2.53;90.65;97310.75;4956670;28;103345;-73
2022/12/15 04:12:40;;;;;;;;;1.00;1.00;;;;;-2.54;90.23;97309.06;4949191;28;104054;-73
2022/12/15 04:15:08;;;;;;;;;4.33;1.00;;;;;-2.54;90.77;97308.22;4952560;28;102636;-73
2022/12/15 04:17:36;;;;;;;;;2.00;1.00;;;;;-2.56;90.07;97310.19;4954397;28;102388;-73
2022/12/15 04:20:10;;;;;;;;;0.00;0.00;;;;;-2.53;89.81;97325.78;4958426;28;102404;-75
2022/12/15 04:22:46;;;;;;;;;1.00;0.00;;;;;-2.52;91.27;97330.09;4954571;28;108830;-75
2022/12/15 05:32:07;;;;;;;;;1.67;0.00;;;;;-2.46;89.63;97427.38;4949940;28;103360;-73
2022/12/15 05:34:36;;;;;;;;;2.00;1.00;;;;;-2.45;90.62;97439.66;4935277;28;102739;-73
2022/12/15 05:37:04;;;;;;;;;1.33;1.00;;;;;-2.43;90.65;97448.28;4959849;28;102306;-73
2022/12/15 05:39:31;;;;;;;;;5.00;4.00;;;;;-2.48;89.25;97447.88;4955083;28;109024;-72
2022/12/15 05:41:58;;;;;;;;;5.33;4.00;;;;;-2.50;89.94;97453.31;4955385;28;102418;-72
2022/12/15 05:44:25;;;;;;;;;2.67;2.00;;;;;-2.47;89.21;97441.59;4956779;28;102348;-72
2022/12/15 05:46:52;;;;;;;;;4.00;2.00;;;;;-2.46;90.41;97438.81;4952072;28;102181;-72
2022/12/15 05:49:22;;;;;;;;;7.67;7.00;;;;;-2.49;90.33;97446.22;4945101;28;104162;-73
2022/12/15 05:51:49;;;;;;;;;12.00;9.33;;;;;-2.66;90.15;97444.38;4952750;28;102261;-73
2022/12/15 05:54:18;;;;;;;;;8.00;8.00;;;;;-2.66;89.62;97447.00;4954121;28;102596;-73
2022/12/15 05:56:46;;;;;;;;;13.33;10.00;;;;;-2.62;89.47;97464.25;4953389;28;102888;-72
2022/12/15 05:59:17;;;;;;;;;13.00;11.00;;;;;-2.59;90.98;97461.31;4949230;28;103796;-72
2022/12/15 06:01:45;;;;;;;;;16.33;12.33;;;;;-2.68;89.14;97470.13;4956460;28;102426;-72
2022/12/15 06:04:12;;;;;;;;;20.67;16.33;;;;;-2.71;89.97;97480.03;4953695;28;102416;-73
2022/12/15 06:06:40;;;;;;;;;10.00;5.00;;;;;-2.70;90.33;97492.25;4957814;28;102517;-73
2022/12/15 06:09:07;;;;;;;;;24.00;19.00;;;;;-2.75;90.10;97491.84;4955581;28;103995;-74
2022/12/15 06:11:36;;;;;;;;;28.00;22.67;;;;;-2.78;89.28;97486.88;4957307;28;102279;-74
2022/12/15 06:14:03;;;;;;;;;12.33;10.33;;;;;-2.70;89.95;97494.06;4955770;28;102379;-74
2022/12/15 06:16:30;;;;;;;;;22.33;20.00;;;;;-2.81;88.96;97504.84;4961475;28;102487;-75
2022/12/15 06:19:00;;;;;;;;;26.67;20.00;;;;;-2.74;89.44;97508.56;4956130;28;104316;-74
2022/12/15 06:21:34;;;;;;;;;16.67;14.00;;;;;-2.71;89.13;97508.28;4956298;28;102333;-74
2022/12/15 06:24:02;;;;;;;;;18.33;16.00;;;;;-2.75;89.78;97512.22;4957057;28;101924;-74
2022/12/15 06:26:35;;;;;;;;;22.33;20.00;;;;;-2.77;89.65;97524.72;4954556;28;102352;-74
2022/12/15 06:29:04;;;;;;;;;28.00;22.33;;;;;-2.82;89.37;97534.91;4954649;28;108781;-74
2022/12/15 06:31:32;;;;;;;;;38.00;33.33;;;;;-2.96;88.32;97525.63;4964866;28;102271;-74
2022/12/15 06:34:04;;;;;;;;;29.00;25.33;;;;;-2.89;89.77;97528.53;4965662;28;102103;-74
2022/12/15 06:36:31;;;;;;;;;36.67;28.67;;;;;-2.95;88.02;97553.75;4961197;28;102456;-74
2022/12/15 06:38:59;;;;;;;;;32.67;29.67;;;;;-2.91;88.00;97549.84;4963829;28;104007;-74
2022/12/15 06:41:29;;;;;;;;;39.67;33.67;;;;;-3.03;87.96;97555.44;4961598;28;103569;-74
2022/12/15 06:43:56;;;;;;;;;41.67;33.00;;;;;-3.00;87.41;97555.97;4961004;28;102407;-74
2022/12/15 06:46:25;;;;;;;;;34.67;23.00;;;;;-3.03;87.94;97550.97;4951618;28;102268;-74
2022/12/15 06:48:52;;;;;;;;;29.67;24.33;;;;;-2.99;87.78;97552.38;4960304;28;103318;-73
2022/12/15 06:51:20;;;;;;;;;44.00;36.33;;;;;-3.05;87.72;97555.56;4959997;28;102304;-73
2022/12/15 06:53:52;;;;;;;;;42.33;32.67;;;;;-3.16;86.38;97539.88;4955049;28;102077;-75
2022/12/15 06:56:22;;;;;;;;;34.33;29.00;;;;;-3.10;85.68;97547.22;4960500;28;102445;-73
2022/12/15 06:58:58;;;;;;;;;37.67;31.00;;;;;-3.17;85.15;97554.91;4952400;28;103985;-75
2022/12/15 07:01:25;;;;;;;;;30.67;28.67;;;;;-3.29;85.54;97540.16;4956986;28;102115;-74
2022/12/15 07:03:53;;;;;;;;;40.00;32.00;;;;;-3.12;85.73;97583.56;4957355;28;102410;-74
2022/12/15 07:06:20;;;;;;;;;34.33;31.00;;;;;-3.03;85.77;97587.16;4962843;28;102414;-74
2022/12/15 07:08:53;;;;;;;;;24.67;19.33;;;;;-2.97;86.12;97592.69;4960850;28;104017;-74
2022/12/15 07:11:21;;;;;;;;;37.33;28.00;;;;;-3.03;85.60;97601.22;4964543;28;102464;-74
2022/12/15 07:13:49;;;;;;;;;30.00;20.00;;;;;-2.95;85.54;97605.78;4954383;28;102168;-73
2022/12/15 07:16:17;;;;;;;;;23.33;18.00;;;;;-2.85;85.01;97610.09;4963968;28;104555;-74
2022/12/15 07:18:44;;;;;;;;;18.00;15.33;;;;;-2.79;84.50;97633.31;4962797;28;104205;-74
2022/12/15 07:21:11;;;;;;;;;14.00;13.67;;;;;-2.86;85.80;97628.75;4963140;28;102551;-74
2022/12/15 07:23:39;;;;;;;;;16.33;13.33;;;;;-2.84;85.57;97629.44;4968722;28;102093;-74
2022/12/15 07:26:20;;;;;;;;;10.00;10.00;;;;;-2.75;85.56;97640.00;4966560;28;102032;-74
2022/12/15 07:28:47;;;;;;;;;30.67;26.00;;;;;-2.98;85.41;97649.22;4962179;28;104027;-74
2022/12/15 07:31:14;;;;;;;;;38.67;25.33;;;;;-3.04;85.84;97648.94;4966527;28;102254;-74
2022/12/15 07:33:41;;;;;;;;;45.67;37.67;;;;;-3.01;85.83;97649.50;4966735;28;102099;-74
2022/12/15 07:36:08;;;;;;;;;36.33;32.33;;;;;-3.15;85.23;97647.25;4964335;28;102016;-73
2022/12/15 07:38:35;;;;;;;;;32.00;26.67;;;;;-3.04;84.91;97655.06;4964284;28;104193;-74
2022/12/15 07:41:05;;;;;;;;;24.33;22.00;;;;;-3.02;85.24;97662.88;4967808;28;102609;-74
2022/12/15 07:43:33;;;;;;;;;27.33;23.00;;;;;-2.98;83.84;97678.31;4946688;28;102098;-74
2022/12/15 07:46:01;;;;;;;;;20.00;16.67;;;;;-2.84;85.63;97672.59;4971125;28;102470;-73
2022/12/15 07:48:29;;;;;;;;;42.67;29.67;;;;;-3.12;84.92;97670.78;4971730;28;103503;-74
2022/12/15 07:50:56;;;;;;;;;39.33;27.67;;;;;-3.07;85.19;97657.16;4970943;28;102237;-74
2022/12/15 07:53:34;;;;;;;;;22.00;19.67;;;;;-2.85;84.78;97665.63;4970339;28;105018;-74
2022/12/15 07:56:04;;;;;;;;;28.00;22.33;;;;;-2.83;82.85;97668.97;4971320;28;102393;-74
2022/12/15 07:58:34;;;;;;;;;25.67;22.00;;;;;-2.81;83.99;97668.84;4965610;28;108796;-73
2022/12/15 08:01:03;;;;;;;;;27.67;22.67;;;;;-2.82;83.30;97677.72;4967466;28;102295;-74
2022/12/15 08:03:31;;;;;;;;;27.67;21.33;;;;;-2.86;83.56;97682.47;4964332;28;101979;-74
2022/12/15 08:06:06;;;;;;;;;36.33;23.67;;;;;-2.90;83.97;97678.44;4961046;28;102407;-74
2022/12/15 08:08:33;;;;;;;;;28.67;26.00;;;;;-2.97;83.74;97687.09;4941085;28;104116;-74
2022/12/15 08:11:05;;;;;;;;;39.33;32.33;;;;;-3.01;84.43;97686.50;4961243;28;102702;-74
2022/12/15 08:13:34;;;;;;;;;44.67;36.67;;;;;-2.99;82.53;97700.44;4954788;28;102221;-74
2022/12/15 08:16:21;;;;;;;;;29.67;25.33;;;;;-2.92;83.34;97690.13;4950987;28;102264;-74
2022/12/15 08:18:48;;;;;;;;;36.33;28.67;;;;;-2.82;82.78;97712.97;4959748;28;104054;-73
2022/12/15 08:21:16;;;;;;;;;23.67;17.00;;;;;-2.81;82.32;97722.56;4963101;28;102119;-72
2022/12/15 08:23:43;;;;;;;;;35.00;26.00;;;;;-2.69;83.40;97720.59;4962349;28;102158;-73
2022/12/15 08:26:13;;;;;;;;;46.00;30.00;;;;;-2.68;81.98;97729.38;4957037;28;102529;-73
2022/12/15 08:28:41;;;;;;;;;23.67;21.33;;;;;-2.63;80.64;97724.50;4960366;28;104077;-73
2022/12/15 08:31:11;;;;;;;;;44.67;33.33;;;;;-2.83;82.24;97742.19;4973129;28;102429;-73
2022/12/15 08:33:39;;;;;;;;;39.33;26.00;;;;;-2.74;82.92;97721.03;4969229;28;102560;-72
2022/12/15 08:36:09;;;;;;;;;31.33;24.00;;;;;-2.43;81.88;97750.00;4974978;28;102092;-74
2022/12/15 08:38:37;;;;;;;;;25.67;20.00;;;;;-2.33;81.41;97741.03;4970228;28;108797;-73
2022/12/15 08:41:17;;;;;;;;;27.00;24.00;;;;;-2.54;81.09;97750.97;4941499;28;102199;-73
2022/12/15 08:43:45;;;;;;;;;41.67;31.00;;;;;-2.70;80.32;97748.03;4959538;28;102090;-72
2022/12/15 08:46:21;;;;;;;;;39.67;33.33;;;;;-2.69;80.57;97749.72;4965074;28;102252;-73
2022/12/15 08:48:49;;;;;;;;;41.00;35.00;;;;;-2.70;80.98;97750.69;4966360;28;103985;-73
2022/12/15 08:51:16;;;;;;;;;33.67;26.33;;;;;-2.55;81.12;97749.28;4956425;28;102150;-73
2022/12/15 08:53:43;;;;;;;;;35.67;30.00;;;;;-2.61;81.94;97762.25;4961411;28;102166;-73
2022/12/15 08:56:14;;;;;;;;;48.33;35.33;;;;;-2.77;80.45;97763.63;4959897;28;102342;-72
2022/12/15 08:58:42;;;;;;;;;40.33;34.67;;;;;-2.73;80.46;97759.75;4959603;28;103631;-72
2022/12/15 09:01:18;;;;;;;;;45.67;34.33;;;;;-2.62;81.41;97752.66;4970310;28;102201;-72
2022/12/15 09:03:51;;;;;;;;;43.00;33.67;;;;;-2.59;79.76;97752.34;4967292;28;101943;-73
2022/12/15 09:06:27;;;;;;;;;34.00;27.67;;;;;-2.53;79.69;97760.59;4967865;28;104422;-73
2022/12/15 09:08:56;;;;;;;;;45.00;36.00;;;;;-2.63;80.46;97756.25;4967191;28;103855;-74
2022/12/15 09:11:24;;;;;;;;;43.00;31.67;;;;;-2.49;80.60;97761.13;4957765;28;102364;-74
2022/12/15 09:13:51;;;;;;;;;35.00;23.33;;;;;-2.33;80.69;97756.94;4965049;28;102402;-73
2022/12/15 09:16:19;;;;;;;;;27.00;23.00;;;;;-2.09;80.07;97759.13;4971551;28;102448;-73
2022/12/15 09:18:49;;;;;;;;;17.67;16.00;;;;;-1.92;78.65;97749.59;4968072;28;103649;-72
2022/12/15 09:21:17;;;;;;;;;20.33;11.00;;;;;-1.72;77.17;97751.22;4968800;28;102045;-74
2022/12/15 09:23:50;;;;;;;;;11.00;9.33;;;;;-1.72;77.40;97755.66;4962660;28;102317;-73
2022/12/15 09:26:19;;;;;;;;;17.67;12.33;;;;;-1.71;77.36;97757.34;4967834;28;102264;-74
2022/12/15 09:28:46;;;;;;;;;14.33;10.67;;;;;-1.77;76.83;97758.75;4953689;28;104245;-73
2022/12/15 09:31:22;;;;;;;;;15.00;12.33;;;;;-1.62;77.21;97772.38;4951324;28;102151;-73
2022/12/15 09:33:52;;;;;;;;;8.00;8.00;;;;;-1.42;76.98;97763.34;4950893;28;102271;-74
2022/12/15 09:36:19;;;;;;;;;8.67;5.00;;;;;-1.23;76.97;97773.84;4959847;28;102070;-74
2022/12/15 09:38:46;;;;;;;;;8.00;5.00;;;;;-1.20;75.18;97770.06;4918447;28;104019;-73
2022/12/15 09:41:13;;;;;;;;;16.33;11.33;;;;;-1.54;75.06;97783.91;4965447;28;102466;-73
2022/12/15 09:44:12;;;;;;;;;9.33;7.00;;;;;-1.39;76.46;97774.47;4960702;28;102101;-73
2022/12/15 09:46:52;;;;;;;;;7.33;4.00;;;;;-1.37;77.18;97788.44;4966841;28;102358;-73
2022/12/15 09:49:28;;;;;;;;;9.33;8.00;;;;;-1.43;74.31;97788.19;4969357;28;104019;-73
2022/12/15 09:52:16;;;;;;;;;9.00;8.00;;;;;-1.58;75.45;97787.00;4947314;28;102633;-73
2022/12/15 09:54:45;;;;;;;;;10.67;10.33;;;;;-1.54;75.99;97794.53;4956253;28;102301;-72
2022/12/15 09:57:27;;;;;;;;;8.00;7.00;;;;;-1.36;76.14;97794.56;4957006;28;101945;-72
2022/12/15 10:00:10;;;;;;;;;8.00;7.67;;;;;-1.34;75.40;97803.22;4963349;28;104166;-73
2022/12/15 10:03:03;;;;;;;;;12.33;9.33;;;;;-1.63;74.28;97802.50;4957719;28;102722;-73
2022/12/15 10:05:51;;;;;;;;;24.00;22.00;;;;;-1.88;76.42;97788.88;4960960;28;102113;-74
2022/12/15 10:08:45;;;;;;;;;21.00;15.33;;;;;-1.46;76.24;97793.78;4945237;28;102041;-73
2022/12/15 10:11:36;;;;;;;;;11.67;10.00;;;;;-1.12;76.63;97791.38;4953281;28;108625;-73
2022/12/15 10:14:11;;;;;;;;;7.33;7.00;;;;;-0.86;74.34;97786.22;4953227;28;102420;-73
2022/12/15 10:17:17;;;;;;;;;17.67;9.00;;;;;-0.93;73.71;97789.44;4941868;28;101838;-72
2022/12/15 10:20:16;;;;;;;;;11.33;9.00;;;;;-0.65;71.32;97795.56;4965649;28;102401;-72
2022/12/15 10:22:43;;;;;;;;;14.00;11.00;;;;;-0.94;73.56;97792.25;4953613;28;108956;-73
2022/12/15 10:25:16;;;;;;;;;16.67;14.00;;;;;-1.04;73.10;97787.03;4959868;28;102146;-72
2022/12/15 10:27:57;;;;;;;;;18.00;14.67;;;;;-1.07;73.27;97789.94;4972091;28;101849;-72
2022/12/15 10:30:24;;;;;;;;;18.00;13.33;;;;;-1.00;73.96;97788.38;4976051;28;102153;-73
2022/12/15 10:33:07;;;;;;;;;26.33;21.33;;;;;-1.15;73.89;97776.59;4970861;28;104648;-72
2022/12/15 10:35:36;;;;;;;;;25.33;16.33;;;;;-1.11;71.11;97780.63;4964009;28;102161;-72
2022/12/15 10:38:05;;;;;;;;;23.33;18.67;;;;;-1.15;73.99;97786.38;4957478;28;102026;-73
2022/12/15 10:40:46;;;;;;;;;12.67;10.33;;;;;-1.00;74.06;97782.25;4961220;28;102052;-73
2022/12/15 10:43:29;;;;;;;;;22.00;10.33;;;;;-0.61;74.24;97769.53;4965613;28;108587;-72
2022/12/15 10:46:18;;;;;;;;;5.00;5.00;;;;;-0.33;73.41;97768.47;4967276;28;102221;-73
2022/12/15 10:48:48;;;;;;;;;8.67;7.33;;;;;-0.08;73.52;97761.50;4961048;28;103258;-72
2022/12/15 10:51:19;;;;;;;;;9.00;5.00;;;;;0.07;72.08;97765.28;4955921;28;102327;-72
2022/12/15 10:53:51;;;;;;;;;8.00;5.00;;;;;-0.01;69.68;97768.72;4968438;28;103854;-73
2022/12/15 10:56:26;;;;;;;;;8.00;5.00;;;;;0.03;71.92;97779.03;4963935;28;102030;-73
2022/12/15 10:59:21;;;;;;;;;6.33;4.67;;;;;0.20;70.41;97781.63;4954457;28;102153;-72
2022/12/15 11:01:49;;;;;;;;;4.00;4.00;;;;;0.31;70.41;97793.84;4973658;28;101999;-72
2022/12/15 11:04:31;;;;;;;;;4.25;2.00;;;;;0.41;69.09;97789.22;4951204;28;103474;-72
2022/12/15 11:07:01;;;;;;;;;2.00;2.00;;;;;0.53;68.73;97800.44;4947489;28;102100;-72
2022/12/15 11:09:38;;;;;;;;;3.00;2.25;;;;;0.48;66.85;97784.97;4956134;28;102148;-72
2022/12/15 11:15:22;;;;;;;;;5.25;4.00;;;;;0.36;67.70;97800.34;4971149;28;108447;-72
2022/12/15 11:18:01;;;;;;;;;6.25;4.50;;;;;0.35;67.97;97796.03;4961151;28;102424;-71
2022/12/15 11:20:40;;;;;;;;;5.25;4.25;;;;;0.44;70.47;97810.22;4962281;28;102200;-71
2022/12/15 11:23:29;;;;;;;;;4.75;2.00;;;;;0.49;68.20;97804.41;4969806;28;102346;-71
2022/12/15 11:26:02;;;;;;;;;13.00;7.00;;;;;0.20;70.37;97812.69;4967309;28;108345;-72
2022/12/15 11:28:47;;;;;;;;;5.75;4.00;;;;;0.28;70.21;97826.03;4969986;28;102394;-71
2022/12/15 11:31:40;;;;;;;;;9.00;4.75;;;;;0.29;70.34;97823.25;4966830;28;102343;-72
2022/12/15 11:34:23;;;;;;;;;10.00;7.00;;;;;0.06;69.63;97821.22;4969935;28;102098;-72
2022/12/15 11:37:18;;;;;;;;;8.00;7.50;;;;;-0.01;70.64;97827.19;4968495;28;108111;-72
2022/12/15 11:40:03;;;;;;;;;12.00;9.00;;;;;0.00;69.20;97825.34;4961815;28;103294;-72
2022/12/15 11:42:43;;;;;;;;;5.75;5.00;;;;;0.10;70.10;97819.94;4958174;28;102323;-73
2022/12/15 11:45:49;;;;;;;;;8.00;6.00;;;;;0.00;69.92;97828.03;4967013;28;102405;-73
2022/12/15 11:48:20;;;;;;;;;8.67;5.33;;;;;-0.22;69.76;97826.66;4958070;28;108616;-73
2022/12/15 11:51:01;;;;;;;;;9.67;8.67;;;;;-0.19;69.63;97829.03;4960101;28;102972;-72
2022/12/15 11:53:54;;;;;;;;;9.75;5.75;;;;;-0.18;70.80;97835.16;4965355;28;103004;-73
2022/12/15 11:56:38;;;;;;;;;12.67;9.00;;;;;-0.37;70.07;97833.50;4968094;28;102508;-72
2022/12/15 11:59:56;;;;;;;;;16.33;8.33;;;;;-0.29;70.60;97841.53;4944649;28;108459;-72
2022/12/15 12:02:35;;;;;;;;;8.00;5.67;;;;;-0.13;71.99;97854.13;4929276;28;102499;-72
2022/12/15 12:05:25;;;;;;;;;4.00;4.00;;;;;-0.11;71.49;97846.84;4962987;28;102360;-73
2022/12/15 12:08:00;;;;;;;;;7.67;5.00;;;;;-0.10;71.17;97851.19;4963781;28;102153;-73
2022/12/15 12:10:36;;;;;;;;;12.00;8.33;;;;;-0.24;71.78;97857.84;4966522;28;103629;-73
2022/12/15 12:13:27;;;;;;;;;11.67;7.33;;;;;-0.23;72.50;97854.22;4969825;28;102403;-72
2022/12/15 12:16:22;;;;;;;;;6.67;5.33;;;;;-0.17;71.19;97858.91;4963574;28;102316;-72
2022/12/15 12:19:08;;;;;;;;;5.00;5.00;;;;;-0.14;72.19;97855.13;4965319;28;102260;-73
2022/12/15 12:21:39;;;;;;;;;5.33;5.00;;;;;-0.22;71.81;97850.56;4970342;28;107563;-73
2022/12/15 12:24:19;;;;;;;;;5.00;4.67;;;;;-0.17;71.63;97836.81;4975303;28;102175;-73
2022/12/15 12:27:00;;;;;;;;;22.00;12.33;;;;;-0.29;73.90;97840.69;4943899;28;102459;-72
2022/12/15 12:29:48;;;;;;;;;9.67;6.67;;;;;-0.23;72.96;97846.25;4963997;28;101920;-72
2022/12/15 12:32:54;;;;;;;;;4.00;2.00;;;;;-0.20;72.42;97834.47;4958502;28;108639;-72
2022/12/15 12:35:37;;;;;;;;;11.33;8.33;;;;;-0.36;72.33;97829.84;4950690;28;102773;-73
2022/12/15 12:38:10;;;;;;;;;15.67;12.00;;;;;-0.56;73.45;97825.66;4971880;28;102414;-73
2022/12/15 12:41:29;;;;;;;;;9.00;7.33;;;;;-0.44;75.65;97843.03;4966272;28;102026;-72
2022/12/15 12:44:02;;;;;;;;;16.00;13.00;;;;;-0.46;75.11;97842.38;4921712;28;108668;-73
2022/12/15 12:46:41;;;;;;;;;22.67;18.33;;;;;-0.79;77.08;97845.66;4954972;28;102364;-72
2022/12/15 12:49:32;;;;;;;;;12.33;8.67;;;;;-0.71;77.16;97848.38;4966968;28;102421;-73
2022/12/15 12:52:03;;;;;;;;;15.67;11.33;;;;;-0.61;76.47;97854.47;4964203;28;104458;-72
2022/12/15 12:54:33;;;;;;;;;8.33;6.33;;;;;-0.58;76.07;97852.34;4967048;28;103985;-72
2022/12/15 12:57:09;;;;;;;;;8.00;7.33;;;;;-0.59;75.15;97847.22;4954998;28;102133;-72
2022/12/15 12:59:39;;;;;;;;;8.67;5.33;;;;;-0.51;76.64;97850.78;4943759;28;102089;-73
2022/12/15 13:02:29;;;;;;;;;3.00;2.00;;;;;-0.39;75.75;97867.31;4968582;28;102415;-73
2022/12/15 13:04:56;;;;;;;;;4.00;2.50;;;;;-0.40;75.84;97870.97;4933094;28;108163;-73
2022/12/15 13:07:31;;;;;;;;;2.00;1.75;;;;;-0.35;75.61;97859.88;4966952;28;102370;-73
2022/12/15 13:10:17;;;;;;;;;4.25;2.00;;;;;-0.36;76.16;97863.53;4961097;28;102231;-73
2022/12/15 13:12:50;;;;;;;;;4.25;2.00;;;;;-0.36;75.26;97860.91;4965619;28;102047;-73
2022/12/15 13:15:32;;;;;;;;;2.00;1.00;;;;;-0.41;75.32;97850.72;4967993;28;104072;-73
2022/12/15 13:18:10;;;;;;;;;1.00;1.00;;;;;-0.37;75.09;97851.25;4969206;28;102324;-73
2022/12/15 13:20:38;;;;;;;;;1.50;1.00;;;;;-0.46;74.94;97848.53;4965518;28;102145;-73
2022/12/15 13:23:23;;;;;;;;;6.67;5.00;;;;;-0.71;75.64;97841.25;4963655;28;102378;-71
2022/12/15 13:25:52;;;;;;;;;13.00;8.67;;;;;-0.83;76.41;97850.44;4960492;28;109169;-73
2022/12/15 13:28:35;;;;;;;;;19.67;13.00;;;;;-0.97;77.25;97854.41;4964264;28;102405;-72
2022/12/15 13:31:20;;;;;;;;;21.00;18.00;;;;;-1.12;78.90;97847.91;4967054;28;102061;-72
2022/12/15 13:33:51;;;;;;;;;21.00;17.33;;;;;-1.12;77.65;97850.56;4964875;28;102332;-72
2022/12/15 13:36:36;;;;;;;;;21.67;12.00;;;;;-1.14;78.53;97852.53;4967862;28;104214;-72
2022/12/15 13:39:26;;;;;;;;;10.33;6.33;;;;;-1.08;79.66;97856.44;4951180;28;101993;-73
2022/12/15 13:41:53;;;;;;;;;10.67;9.00;;;;;-1.17;78.32;97866.06;4972670;28;102018;-73
2022/12/15 13:44:45;;;;;;;;;12.67;8.00;;;;;-1.26;79.35;97864.28;4956311;28;102189;-72
2022/12/15 13:47:23;;;;;;;;;15.67;15.33;;;;;-1.42;79.11;97869.38;4964303;28;104332;-72
2022/12/15 13:50:14;;;;;;;;;14.33;11.00;;;;;-1.43;81.20;97879.16;4963795;28;102538;-73
2022/12/15 13:52:46;;;;;;;;;11.33;8.67;;;;;-1.46;79.72;97883.91;4952890;28;102308;-73
2022/12/15 13:55:37;;;;;;;;;10.67;10.33;;;;;-1.50;80.95;97885.19;4949105;28;102509;-73
2022/12/15 13:58:19;;;;;;;;;20.00;17.67;;;;;-1.66;81.77;97898.16;4961999;28;111594;-73
2022/12/15 14:00:55;;;;;;;;;37.33;31.00;;;;;-1.84;81.85;97898.91;4965575;28;102160;-73
2022/12/15 14:03:22;;;;;;;;;30.33;23.33;;;;;-1.85;82.58;97897.22;4967773;28;102102;-73
2022/12/15 14:05:55;;;;;;;;;11.33;9.33;;;;;-1.80;81.54;97913.53;4964649;28;102089;-73
2022/12/15 14:08:27;;;;;;;;;15.33;12.00;;;;;-1.80;80.97;97923.28;4968832;28;104517;-74
2022/12/15 14:10:57;;;;;;;;;19.67;14.00;;;;;-1.93;80.72;97915.63;4961731;28;102226;-73
2022/12/15 14:13:33;;;;;;;;;14.00;10.33;;;;;-1.84;81.27;97922.75;4965430;28;101986;-73
2022/12/15 14:16:16;;;;;;;;;11.00;8.00;;;;;-1.73;82.39;97928.88;4964763;28;102447;-73
2022/12/15 14:18:44;;;;;;;;;9.67;5.00;;;;;-1.67;81.45;97936.28;4929543;28;109428;-72